Time;durP1;ratioP1;P1;durP2;ratioP2;P2;SDS_P1;SDS_P2;PMS_P1;PMS_P2;Temp;Humidity;BMP_temperature;BMP_pressure;BME280_temperature;BME280_humidity;BME280_pressure;Samples;Min_cycle;Max_cycle;Signal;HPM_P1;HPM_P2
2020/09/13 00:00:57;;;;;;;18.65;16.9;;;;;;;13.79;87.53711;95935.16;;;;
2020/09/13 00:01:57;;;;;;;18.65;16.9;;;;;;;13.79;87.53711;95935.16;;;;
2020/09/13 00:02:58;;;;;;;18;16.25;;;;;;;13.7;88.06543;95940.66;;;;
2020/09/13 00:03:59;;;;;;;18;16.25;;;;;;;13.7;88.06543;95940.66;;;;
2020/09/13 00:04:59;;;;;;;18;16.25;;;;;;;13.7;88.06543;95940.66;;;;
2020/09/13 00:06:00;;;;;;;18;16.25;;;;;;;13.7;88.06543;95940.66;;;;
2020/09/13 00:07:00;;;;;;;18;16.25;;;;;;;13.7;88.06543;95940.66;;;;
2020/09/13 00:08:01;;;;;;;18;16.25;;;;;;;13.7;88.06543;95940.66;;;;
2020/09/13 00:09:02;;;;;;;18;16.25;;;;;;;13.7;88.06543;95940.66;;;;
2020/09/13 00:10:02;;;;;;;18;16.25;;;;;;;13.7;88.06543;95940.66;;;;
2020/09/13 00:11:03;;;;;;;18;16.25;;;;;;;13.7;88.06543;95940.66;;;;
2020/09/13 00:12:07;;;;;;;18;16.25;;;;;;;13.7;88.06543;95940.66;;;;
2020/09/13 00:13:07;;;;;;;18.55;16.8;;;;;;;13.65;88.47461;95953.61;;;;
2020/09/13 00:14:08;;;;;;;18.55;16.8;;;;;;;13.65;88.47461;95953.61;;;;
2020/09/13 00:15:08;;;;;;;18.55;16.8;;;;;;;13.65;88.47461;95953.61;;;;
2020/09/13 00:16:09;;;;;;;18.55;16.8;;;;;;;13.65;88.47461;95953.61;;;;
2020/09/13 00:17:10;;;;;;;18.55;16.8;;;;;;;13.65;88.47461;95953.61;;;;
2020/09/13 00:18:10;;;;;;;18.55;16.8;;;;;;;13.65;88.47461;95953.61;;;;
2020/09/13 00:19:11;;;;;;;18.55;16.8;;;;;;;13.65;88.47461;95953.61;;;;
2020/09/13 00:20:11;;;;;;;18.55;16.8;;;;;;;13.65;88.47461;95953.61;;;;
2020/09/13 00:21:12;;;;;;;18.55;16.8;;;;;;;13.65;88.47461;95953.61;;;;
2020/09/13 00:22:12;;;;;;;18.55;16.8;;;;;;;13.65;88.47461;95953.61;;;;
2020/09/13 00:23:13;;;;;;;18.55;16.8;;;;;;;13.65;88.47461;95953.61;;;;
2020/09/13 00:24:13;;;;;;;19.55;17.7;;;;;;;13.55;89.06738;95953.37;;;;
2020/09/13 00:25:14;;;;;;;19.55;17.7;;;;;;;13.55;89.06738;95953.37;;;;
2020/09/13 00:26:14;;;;;;;19.55;17.7;;;;;;;13.55;89.06738;95953.37;;;;
2020/09/13 00:27:15;;;;;;;19.55;17.7;;;;;;;13.55;89.06738;95953.37;;;;
2020/09/13 00:28:15;;;;;;;19.55;17.7;;;;;;;13.55;89.06738;95953.37;;;;
2020/09/13 00:29:16;;;;;;;19.55;17.7;;;;;;;13.55;89.06738;95953.37;;;;
2020/09/13 00:30:16;;;;;;;19.55;17.7;;;;;;;13.55;89.06738;95953.37;;;;
2020/09/13 00:31:17;;;;;;;19.55;17.7;;;;;;;13.55;89.06738;95953.37;;;;
2020/09/13 00:32:17;;;;;;;19.55;17.7;;;;;;;13.55;89.06738;95953.37;;;;
2020/09/13 00:33:18;;;;;;;19.55;17.7;;;;;;;13.55;89.06738;95953.37;;;;
2020/09/13 00:34:18;;;;;;;22.3;20.1;;;;;;;13.61;90.01367;95941.99;;;;
2020/09/13 00:35:19;;;;;;;22.3;20.1;;;;;;;13.61;90.01367;95941.99;;;;
2020/09/13 00:36:19;;;;;;;22.3;20.1;;;;;;;13.61;90.01367;95941.99;;;;
2020/09/13 00:37:20;;;;;;;22.3;20.1;;;;;;;13.61;90.01367;95941.99;;;;
2020/09/13 00:38:20;;;;;;;22.3;20.1;;;;;;;13.61;90.01367;95941.99;;;;
2020/09/13 00:39:20;;;;;;;22.3;20.1;;;;;;;13.61;90.01367;95941.99;;;;
2020/09/13 00:40:21;;;;;;;22.3;20.1;;;;;;;13.61;90.01367;95941.99;;;;
2020/09/13 00:41:21;;;;;;;22.3;20.1;;;;;;;13.61;90.01367;95941.99;;;;
2020/09/13 00:42:22;;;;;;;22.3;20.1;;;;;;;13.61;90.01367;95941.99;;;;
2020/09/13 00:43:22;;;;;;;22.3;20.1;;;;;;;13.61;90.01367;95941.99;;;;
2020/09/13 00:44:23;;;;;;;22.3;20.1;;;;;;;13.61;90.01367;95941.99;;;;
2020/09/13 00:45:23;;;;;;;23.7;21.4;;;;;;;13.79;90.33789;95948.32;;;;
2020/09/13 00:46:24;;;;;;;23.7;21.4;;;;;;;13.79;90.33789;95948.32;;;;
2020/09/13 00:47:24;;;;;;;23.7;21.4;;;;;;;13.79;90.33789;95948.32;;;;
2020/09/13 00:48:25;;;;;;;23.7;21.4;;;;;;;13.79;90.33789;95948.32;;;;
2020/09/13 00:49:25;;;;;;;23.7;21.4;;;;;;;13.79;90.33789;95948.32;;;;
2020/09/13 00:50:26;;;;;;;23.7;21.4;;;;;;;13.79;90.33789;95948.32;;;;
2020/09/13 00:51:27;;;;;;;23.7;21.4;;;;;;;13.79;90.33789;95948.32;;;;
2020/09/13 00:52:27;;;;;;;23.7;21.4;;;;;;;13.79;90.33789;95948.32;;;;
2020/09/13 00:53:28;;;;;;;23.7;21.4;;;;;;;13.79;90.33789;95948.32;;;;
2020/09/13 00:54:28;;;;;;;23.7;21.4;;;;;;;13.79;90.33789;95948.32;;;;
2020/09/13 00:55:29;;;;;;;23.7;21.4;;;;;;;13.79;90.33789;95948.32;;;;
2020/09/13 00:56:29;;;;;;;21.2;19.2;;;;;;;13.85;90.93066;95947.23;;;;
2020/09/13 00:57:39;;;;;;;21.2;19.2;;;;;;;13.85;90.93066;95947.23;;;;
2020/09/13 00:59:09;;;;;;;21.2;19.2;;;;;;;13.85;90.93066;95947.23;;;;
2020/09/13 01:00:22;;;;;;;21.2;19.2;;;;;;;13.85;90.93066;95947.23;;;;
2020/09/13 01:01:24;;;;;;;21.2;19.2;;;;;;;13.85;90.93066;95947.23;;;;
2020/09/13 01:02:36;;;;;;;21.2;19.2;;;;;;;13.85;90.93066;95947.23;;;;
2020/09/13 01:03:46;;;;;;;21.2;19.2;;;;;;;13.85;90.93066;95947.23;;;;
2020/09/13 01:04:53;;;;;;;21.2;19.2;;;;;;;13.85;90.93066;95947.23;;;;
2020/09/13 01:06:00;;;;;;;21.2;19.2;;;;;;;13.85;90.93066;95947.23;;;;
2020/09/13 01:07:04;;;;;;;21.7;19.6;;;;;;;13.95;91.32813;95958.31;;;;
2020/09/13 01:08:05;;;;;;;21.7;19.6;;;;;;;13.95;91.32813;95958.31;;;;
2020/09/13 01:09:06;;;;;;;21.7;19.6;;;;;;;13.95;91.32813;95958.31;;;;
2020/09/13 01:10:07;;;;;;;21.7;19.6;;;;;;;13.95;91.32813;95958.31;;;;
2020/09/13 01:11:12;;;;;;;21.7;19.6;;;;;;;13.95;91.32813;95958.31;;;;
2020/09/13 01:12:12;;;;;;;21.7;19.6;;;;;;;13.95;91.32813;95958.31;;;;
2020/09/13 01:13:14;;;;;;;21.7;19.6;;;;;;;13.95;91.32813;95958.31;;;;
2020/09/13 01:14:14;;;;;;;21.7;19.6;;;;;;;13.95;91.32813;95958.31;;;;
2020/09/13 01:15:15;;;;;;;21.7;19.6;;;;;;;13.95;91.32813;95958.31;;;;
2020/09/13 01:16:15;;;;;;;21.7;19.6;;;;;;;13.95;91.32813;95958.31;;;;
2020/09/13 01:17:17;;;;;;;21.7;19.6;;;;;;;13.97;91.79102;95954.41;;;;
2020/09/13 01:18:17;;;;;;;21.7;19.6;;;;;;;13.97;91.79102;95954.41;;;;
2020/09/13 01:19:18;;;;;;;21.7;19.6;;;;;;;13.97;91.79102;95954.41;;;;
2020/09/13 01:20:18;;;;;;;21.7;19.6;;;;;;;13.97;91.79102;95954.41;;;;
2020/09/13 01:21:19;;;;;;;21.7;19.6;;;;;;;13.97;91.79102;95954.41;;;;
2020/09/13 01:22:20;;;;;;;21.7;19.6;;;;;;;13.97;91.79102;95954.41;;;;
2020/09/13 01:23:20;;;;;;;21.7;19.6;;;;;;;13.97;91.79102;95954.41;;;;
2020/09/13 01:24:21;;;;;;;21.7;19.6;;;;;;;13.97;91.79102;95954.41;;;;
2020/09/13 01:25:21;;;;;;;21.7;19.6;;;;;;;13.97;91.79102;95954.41;;;;
2020/09/13 01:26:22;;;;;;;21.7;19.6;;;;;;;13.97;91.79102;95954.41;;;;
2020/09/13 01:27:23;;;;;;;21.7;19.6;;;;;;;13.97;91.79102;95954.41;;;;
2020/09/13 01:28:23;;;;;;;20.25;18.45;;;;;;;13.95;92.2373;95949.75;;;;
2020/09/13 01:29:24;;;;;;;20.25;18.45;;;;;;;13.95;92.2373;95949.75;;;;
2020/09/13 01:30:24;;;;;;;20.25;18.45;;;;;;;13.95;92.2373;95949.75;;;;
2020/09/13 01:31:25;;;;;;;20.25;18.45;;;;;;;13.95;92.2373;95949.75;;;;
2020/09/13 01:32:27;;;;;;;20.25;18.45;;;;;;;13.95;92.2373;95949.75;;;;
2020/09/13 01:33:28;;;;;;;20.25;18.45;;;;;;;13.95;92.2373;95949.75;;;;
2020/09/13 01:34:28;;;;;;;20.25;18.45;;;;;;;13.95;92.2373;95949.75;;;;
2020/09/13 01:35:29;;;;;;;20.25;18.45;;;;;;;13.95;92.2373;95949.75;;;;
2020/09/13 01:36:29;;;;;;;20.25;18.45;;;;;;;13.95;92.2373;95949.75;;;;
2020/09/13 01:37:33;;;;;;;20.25;18.45;;;;;;;13.95;92.2373;95949.75;;;;
2020/09/13 01:38:33;;;;;;;19.9;17.95;;;;;;;13.82;92.63867;95967.24;;;;
2020/09/13 01:39:34;;;;;;;19.9;17.95;;;;;;;13.82;92.63867;95967.24;;;;
2020/09/13 01:40:34;;;;;;;19.9;17.95;;;;;;;13.82;92.63867;95967.24;;;;
2020/09/13 01:41:35;;;;;;;19.9;17.95;;;;;;;13.82;92.63867;95967.24;;;;
2020/09/13 01:42:35;;;;;;;19.9;17.95;;;;;;;13.82;92.63867;95967.24;;;;
2020/09/13 01:43:36;;;;;;;19.9;17.95;;;;;;;13.82;92.63867;95967.24;;;;
2020/09/13 01:44:36;;;;;;;19.9;17.95;;;;;;;13.82;92.63867;95967.24;;;;
2020/09/13 01:45:37;;;;;;;19.9;17.95;;;;;;;13.82;92.63867;95967.24;;;;
2020/09/13 01:46:37;;;;;;;19.9;17.95;;;;;;;13.82;92.63867;95967.24;;;;
2020/09/13 01:47:38;;;;;;;19.9;17.95;;;;;;;13.82;92.63867;95967.24;;;;
2020/09/13 01:48:38;;;;;;;19.9;17.95;;;;;;;13.82;92.63867;95967.24;;;;
2020/09/13 01:49:40;;;;;;;22.6;20.5;;;;;;;13.71;93.32422;95953.58;;;;
2020/09/13 01:50:40;;;;;;;22.6;20.5;;;;;;;13.71;93.32422;95953.58;;;;
2020/09/13 01:51:40;;;;;;;22.6;20.5;;;;;;;13.71;93.32422;95953.58;;;;
2020/09/13 01:52:41;;;;;;;22.6;20.5;;;;;;;13.71;93.32422;95953.58;;;;
2020/09/13 01:53:41;;;;;;;22.6;20.5;;;;;;;13.71;93.32422;95953.58;;;;
2020/09/13 01:54:42;;;;;;;22.6;20.5;;;;;;;13.71;93.32422;95953.58;;;;
2020/09/13 01:55:42;;;;;;;22.6;20.5;;;;;;;13.71;93.32422;95953.58;;;;
2020/09/13 01:56:43;;;;;;;22.6;20.5;;;;;;;13.71;93.32422;95953.58;;;;
2020/09/13 01:57:43;;;;;;;22.6;20.5;;;;;;;13.71;93.32422;95953.58;;;;
2020/09/13 01:58:44;;;;;;;22.6;20.5;;;;;;;13.71;93.32422;95953.58;;;;
2020/09/13 01:59:44;;;;;;;20.55;18.6;;;;;;;13.74;93.67383;95959.91;;;;
2020/09/13 02:00:45;;;;;;;20.55;18.6;;;;;;;13.74;93.67383;95959.91;;;;
2020/09/13 02:01:46;;;;;;;20.55;18.6;;;;;;;13.74;93.67383;95959.91;;;;
2020/09/13 02:02:46;;;;;;;20.55;18.6;;;;;;;13.74;93.67383;95959.91;;;;
2020/09/13 02:03:47;;;;;;;20.55;18.6;;;;;;;13.74;93.67383;95959.91;;;;
2020/09/13 02:04:47;;;;;;;20.55;18.6;;;;;;;13.74;93.67383;95959.91;;;;
2020/09/13 02:05:48;;;;;;;20.55;18.6;;;;;;;13.74;93.67383;95959.91;;;;
2020/09/13 02:06:48;;;;;;;20.55;18.6;;;;;;;13.74;93.67383;95959.91;;;;
2020/09/13 02:07:49;;;;;;;20.55;18.6;;;;;;;13.74;93.67383;95959.91;;;;
2020/09/13 02:08:49;;;;;;;20.55;18.6;;;;;;;13.74;93.67383;95959.91;;;;
2020/09/13 02:09:50;;;;;;;20.55;18.6;;;;;;;13.74;93.67383;95959.91;;;;
2020/09/13 02:10:50;;;;;;;21.8;19.9;;;;;;;13.67;94.0752;95948.88;;;;
2020/09/13 02:11:51;;;;;;;21.8;19.9;;;;;;;13.67;94.0752;95948.88;;;;
2020/09/13 02:12:51;;;;;;;21.8;19.9;;;;;;;13.67;94.0752;95948.88;;;;
2020/09/13 02:13:52;;;;;;;21.8;19.9;;;;;;;13.67;94.0752;95948.88;;;;
2020/09/13 02:14:52;;;;;;;21.8;19.9;;;;;;;13.67;94.0752;95948.88;;;;
2020/09/13 02:15:52;;;;;;;21.8;19.9;;;;;;;13.67;94.0752;95948.88;;;;
2020/09/13 02:16:53;;;;;;;21.8;19.9;;;;;;;13.67;94.0752;95948.88;;;;
2020/09/13 02:17:54;;;;;;;21.8;19.9;;;;;;;13.67;94.0752;95948.88;;;;
2020/09/13 02:18:54;;;;;;;21.8;19.9;;;;;;;13.67;94.0752;95948.88;;;;
2020/09/13 02:19:55;;;;;;;21.8;19.9;;;;;;;13.67;94.0752;95948.88;;;;
2020/09/13 02:20:55;;;;;;;21.8;19.9;;;;;;;13.67;94.0752;95948.88;;;;
2020/09/13 02:21:56;;;;;;;20.8;18.75;;;;;;;13.59;94.5625;95959.56;;;;
2020/09/13 02:22:56;;;;;;;20.8;18.75;;;;;;;13.59;94.5625;95959.56;;;;
2020/09/13 02:23:57;;;;;;;20.8;18.75;;;;;;;13.59;94.5625;95959.56;;;;
2020/09/13 02:24:57;;;;;;;20.8;18.75;;;;;;;13.59;94.5625;95959.56;;;;
2020/09/13 02:25:58;;;;;;;20.8;18.75;;;;;;;13.59;94.5625;95959.56;;;;
2020/09/13 02:26:58;;;;;;;20.8;18.75;;;;;;;13.59;94.5625;95959.56;;;;
2020/09/13 02:27:59;;;;;;;20.8;18.75;;;;;;;13.59;94.5625;95959.56;;;;
2020/09/13 02:28:59;;;;;;;20.8;18.75;;;;;;;13.59;94.5625;95959.56;;;;
2020/09/13 02:30:00;;;;;;;20.8;18.75;;;;;;;13.59;94.5625;95959.56;;;;
2020/09/13 02:31:00;;;;;;;20.8;18.75;;;;;;;13.59;94.5625;95959.56;;;;
2020/09/13 02:32:01;;;;;;;20.75;18.8;;;;;;;13.47;94.92383;95967.69;;;;
2020/09/13 02:33:01;;;;;;;20.75;18.8;;;;;;;13.47;94.92383;95967.69;;;;
2020/09/13 02:34:02;;;;;;;20.75;18.8;;;;;;;13.47;94.92383;95967.69;;;;
2020/09/13 02:35:02;;;;;;;20.75;18.8;;;;;;;13.47;94.92383;95967.69;;;;
2020/09/13 02:36:03;;;;;;;20.75;18.8;;;;;;;13.47;94.92383;95967.69;;;;
2020/09/13 02:37:04;;;;;;;20.75;18.8;;;;;;;13.47;94.92383;95967.69;;;;
2020/09/13 02:38:05;;;;;;;20.75;18.8;;;;;;;13.47;94.92383;95967.69;;;;
2020/09/13 02:39:05;;;;;;;20.75;18.8;;;;;;;13.47;94.92383;95967.69;;;;
2020/09/13 02:40:06;;;;;;;20.75;18.8;;;;;;;13.47;94.92383;95967.69;;;;
2020/09/13 02:41:06;;;;;;;20.75;18.8;;;;;;;13.47;94.92383;95967.69;;;;
2020/09/13 02:42:07;;;;;;;20.75;18.8;;;;;;;13.47;94.92383;95967.69;;;;
2020/09/13 02:43:07;;;;;;;20.15;18.25;;;;;;;13.35;95.44336;95965.11;;;;
2020/09/13 02:44:08;;;;;;;20.15;18.25;;;;;;;13.35;95.44336;95965.11;;;;
2020/09/13 02:45:08;;;;;;;20.15;18.25;;;;;;;13.35;95.44336;95965.11;;;;
2020/09/13 02:46:09;;;;;;;20.15;18.25;;;;;;;13.35;95.44336;95965.11;;;;
2020/09/13 02:47:10;;;;;;;20.15;18.25;;;;;;;13.35;95.44336;95965.11;;;;
2020/09/13 02:48:11;;;;;;;20.15;18.25;;;;;;;13.35;95.44336;95965.11;;;;
2020/09/13 02:49:11;;;;;;;20.15;18.25;;;;;;;13.35;95.44336;95965.11;;;;
2020/09/13 02:50:12;;;;;;;20.15;18.25;;;;;;;13.35;95.44336;95965.11;;;;
2020/09/13 02:51:12;;;;;;;20.15;18.25;;;;;;;13.35;95.44336;95965.11;;;;
2020/09/13 02:52:13;;;;;;;20.15;18.25;;;;;;;13.35;95.44336;95965.11;;;;
2020/09/13 02:53:13;;;;;;;21.5;19.5;;;;;;;13.29;95.80371;95973.8;;;;
2020/09/13 02:54:14;;;;;;;21.5;19.5;;;;;;;13.29;95.80371;95973.8;;;;
2020/09/13 02:55:14;;;;;;;21.5;19.5;;;;;;;13.29;95.80371;95973.8;;;;
2020/09/13 02:56:15;;;;;;;21.5;19.5;;;;;;;13.29;95.80371;95973.8;;;;
2020/09/13 02:57:15;;;;;;;21.5;19.5;;;;;;;13.29;95.80371;95973.8;;;;
2020/09/13 02:58:16;;;;;;;21.5;19.5;;;;;;;13.29;95.80371;95973.8;;;;
2020/09/13 02:59:16;;;;;;;21.5;19.5;;;;;;;13.29;95.80371;95973.8;;;;
2020/09/13 03:00:17;;;;;;;21.5;19.5;;;;;;;13.29;95.80371;95973.8;;;;
2020/09/13 03:01:17;;;;;;;21.5;19.5;;;;;;;13.29;95.80371;95973.8;;;;
2020/09/13 03:02:18;;;;;;;21.5;19.5;;;;;;;13.29;95.80371;95973.8;;;;
2020/09/13 03:03:18;;;;;;;21.5;19.5;;;;;;;13.29;95.80371;95973.8;;;;
2020/09/13 03:04:19;;;;;;;21.7;19.7;;;;;;;13.32;96.05566;95997.73;;;;
2020/09/13 03:05:19;;;;;;;21.7;19.7;;;;;;;13.32;96.05566;95997.73;;;;
2020/09/13 03:06:20;;;;;;;21.7;19.7;;;;;;;13.32;96.05566;95997.73;;;;
2020/09/13 03:07:20;;;;;;;21.7;19.7;;;;;;;13.32;96.05566;95997.73;;;;
2020/09/13 03:08:21;;;;;;;21.7;19.7;;;;;;;13.32;96.05566;95997.73;;;;
2020/09/13 03:09:21;;;;;;;21.7;19.7;;;;;;;13.32;96.05566;95997.73;;;;
2020/09/13 03:10:22;;;;;;;21.7;19.7;;;;;;;13.32;96.05566;95997.73;;;;
2020/09/13 03:11:22;;;;;;;21.7;19.7;;;;;;;13.32;96.05566;95997.73;;;;
2020/09/13 03:12:23;;;;;;;21.7;19.7;;;;;;;13.32;96.05566;95997.73;;;;
2020/09/13 03:13:23;;;;;;;21.7;19.7;;;;;;;13.32;96.05566;95997.73;;;;
2020/09/13 03:14:24;;;;;;;25.05;22.55;;;;;;;13.28;96.30664;95987.47;;;;
2020/09/13 03:15:24;;;;;;;25.05;22.55;;;;;;;13.28;96.30664;95987.47;;;;
2020/09/13 03:16:25;;;;;;;25.05;22.55;;;;;;;13.28;96.30664;95987.47;;;;
2020/09/13 03:17:25;;;;;;;25.05;22.55;;;;;;;13.28;96.30664;95987.47;;;;
2020/09/13 03:18:26;;;;;;;25.05;22.55;;;;;;;13.28;96.30664;95987.47;;;;
2020/09/13 03:19:26;;;;;;;25.05;22.55;;;;;;;13.28;96.30664;95987.47;;;;
2020/09/13 03:20:27;;;;;;;25.05;22.55;;;;;;;13.28;96.30664;95987.47;;;;
2020/09/13 03:21:27;;;;;;;25.05;22.55;;;;;;;13.28;96.30664;95987.47;;;;
2020/09/13 03:22:28;;;;;;;25.05;22.55;;;;;;;13.28;96.30664;95987.47;;;;
2020/09/13 03:23:28;;;;;;;25.05;22.55;;;;;;;13.28;96.30664;95987.47;;;;
2020/09/13 03:24:29;;;;;;;25.05;22.55;;;;;;;13.28;96.30664;95987.47;;;;
2020/09/13 03:25:30;;;;;;;26.05;23.5;;;;;;;13.36;96.84668;95990.26;;;;
2020/09/13 03:26:30;;;;;;;26.05;23.5;;;;;;;13.36;96.84668;95990.26;;;;
2020/09/13 03:27:34;;;;;;;26.05;23.5;;;;;;;13.36;96.84668;95990.26;;;;
2020/09/13 03:28:35;;;;;;;26.05;23.5;;;;;;;13.36;96.84668;95990.26;;;;
2020/09/13 03:29:35;;;;;;;26.05;23.5;;;;;;;13.36;96.84668;95990.26;;;;
2020/09/13 03:30:36;;;;;;;26.05;23.5;;;;;;;13.36;96.84668;95990.26;;;;
2020/09/13 03:31:36;;;;;;;26.05;23.5;;;;;;;13.36;96.84668;95990.26;;;;
2020/09/13 03:32:37;;;;;;;26.05;23.5;;;;;;;13.36;96.84668;95990.26;;;;
2020/09/13 03:33:37;;;;;;;26.05;23.5;;;;;;;13.36;96.84668;95990.26;;;;
2020/09/13 03:34:38;;;;;;;26.05;23.5;;;;;;;13.36;96.84668;95990.26;;;;
2020/09/13 03:35:39;;;;;;;21.6;19.55;;;;;;;13.33;97.18262;96014.7;;;;
2020/09/13 03:36:39;;;;;;;21.6;19.55;;;;;;;13.33;97.18262;96014.7;;;;
2020/09/13 03:37:40;;;;;;;21.6;19.55;;;;;;;13.33;97.18262;96014.7;;;;
2020/09/13 03:38:40;;;;;;;21.6;19.55;;;;;;;13.33;97.18262;96014.7;;;;
2020/09/13 03:39:41;;;;;;;21.6;19.55;;;;;;;13.33;97.18262;96014.7;;;;
2020/09/13 03:40:41;;;;;;;21.6;19.55;;;;;;;13.33;97.18262;96014.7;;;;
2020/09/13 03:41:48;;;;;;;21.6;19.55;;;;;;;13.33;97.18262;96014.7;;;;
2020/09/13 03:42:49;;;;;;;21.6;19.55;;;;;;;13.33;97.18262;96014.7;;;;
2020/09/13 03:43:51;;;;;;;21.6;19.55;;;;;;;13.33;97.18262;96014.7;;;;
2020/09/13 03:44:52;;;;;;;21.6;19.55;;;;;;;13.33;97.18262;96014.7;;;;
2020/09/13 03:45:53;;;;;;;21.6;19.55;;;;;;;13.33;97.18262;96014.7;;;;
2020/09/13 03:46:54;;;;;;;21.55;19.55;;;;;;;13.27;97.44629;96018.38;;;;
2020/09/13 03:47:55;;;;;;;21.55;19.55;;;;;;;13.27;97.44629;96018.38;;;;
2020/09/13 03:48:56;;;;;;;21.55;19.55;;;;;;;13.27;97.44629;96018.38;;;;
2020/09/13 03:49:58;;;;;;;21.55;19.55;;;;;;;13.27;97.44629;96018.38;;;;
2020/09/13 03:50:59;;;;;;;21.55;19.55;;;;;;;13.27;97.44629;96018.38;;;;
2020/09/13 03:52:00;;;;;;;21.55;19.55;;;;;;;13.27;97.44629;96018.38;;;;
2020/09/13 03:53:01;;;;;;;21.55;19.55;;;;;;;13.27;97.44629;96018.38;;;;
2020/09/13 03:54:02;;;;;;;21.55;19.55;;;;;;;13.27;97.44629;96018.38;;;;
2020/09/13 03:55:04;;;;;;;21.55;19.55;;;;;;;13.27;97.44629;96018.38;;;;
2020/09/13 03:56:06;;;;;;;21.55;19.55;;;;;;;13.27;97.44629;96018.38;;;;
2020/09/13 03:57:07;;;;;;;18.8;17.1;;;;;;;13.09;97.69531;96028.38;;;;
2020/09/13 03:58:08;;;;;;;18.8;17.1;;;;;;;13.09;97.69531;96028.38;;;;
2020/09/13 03:59:10;;;;;;;18.8;17.1;;;;;;;13.09;97.69531;96028.38;;;;
2020/09/13 04:00:11;;;;;;;18.8;17.1;;;;;;;13.09;97.69531;96028.38;;;;
2020/09/13 04:01:12;;;;;;;18.8;17.1;;;;;;;13.09;97.69531;96028.38;;;;
2020/09/13 04:02:16;;;;;;;18.8;17.1;;;;;;;13.09;97.69531;96028.38;;;;
2020/09/13 04:03:20;;;;;;;18.8;17.1;;;;;;;13.09;97.69531;96028.38;;;;
2020/09/13 04:04:20;;;;;;;18.8;17.1;;;;;;;13.09;97.69531;96028.38;;;;
2020/09/13 04:05:21;;;;;;;18.8;17.1;;;;;;;13.09;97.69531;96028.38;;;;
2020/09/13 04:06:21;;;;;;;18.8;17.1;;;;;;;13.09;97.69531;96028.38;;;;
2020/09/13 04:07:22;;;;;;;18.8;17.1;;;;;;;13.09;97.69531;96028.38;;;;
2020/09/13 04:08:23;;;;;;;18.3;16.4;;;;;;;12.96;98;96050.23;;;;
2020/09/13 04:09:23;;;;;;;18.3;16.4;;;;;;;12.96;98;96050.23;;;;
2020/09/13 04:10:24;;;;;;;18.3;16.4;;;;;;;12.96;98;96050.23;;;;
2020/09/13 04:11:25;;;;;;;18.3;16.4;;;;;;;12.96;98;96050.23;;;;
2020/09/13 04:12:43;;;;;;;18.3;16.4;;;;;;;12.96;98;96050.23;;;;
2020/09/13 04:13:43;;;;;;;18.3;16.4;;;;;;;12.96;98;96050.23;;;;
2020/09/13 04:14:44;;;;;;;18.3;16.4;;;;;;;12.96;98;96050.23;;;;
2020/09/13 04:15:44;;;;;;;18.3;16.4;;;;;;;12.96;98;96050.23;;;;
2020/09/13 04:16:45;;;;;;;18.3;16.4;;;;;;;12.96;98;96050.23;;;;
2020/09/13 04:17:47;;;;;;;18.3;16.4;;;;;;;12.96;98;96050.23;;;;
2020/09/13 04:18:49;;;;;;;20.2;18.25;;;;;;;12.8;98.32715;96060.38;;;;
2020/09/13 04:19:52;;;;;;;20.2;18.25;;;;;;;12.8;98.32715;96060.38;;;;
2020/09/13 04:20:53;;;;;;;20.2;18.25;;;;;;;12.8;98.32715;96060.38;;;;
2020/09/13 04:21:54;;;;;;;20.2;18.25;;;;;;;12.8;98.32715;96060.38;;;;
2020/09/13 04:23:04;;;;;;;20.2;18.25;;;;;;;12.8;98.32715;96060.38;;;;
2020/09/13 04:24:09;;;;;;;20.2;18.25;;;;;;;12.8;98.32715;96060.38;;;;
2020/09/13 04:25:11;;;;;;;20.2;18.25;;;;;;;12.8;98.32715;96060.38;;;;
2020/09/13 04:26:12;;;;;;;20.2;18.25;;;;;;;12.8;98.32715;96060.38;;;;
2020/09/13 04:27:17;;;;;;;20.2;18.25;;;;;;;12.8;98.32715;96060.38;;;;
2020/09/13 04:28:23;;;;;;;20.2;18.25;;;;;;;12.8;98.32715;96060.38;;;;
2020/09/13 04:29:24;;;;;;;20.75;18.75;;;;;;;12.77;98.62598;96069.49;;;;
2020/09/13 04:30:25;;;;;;;20.75;18.75;;;;;;;12.77;98.62598;96069.49;;;;
2020/09/13 04:31:36;;;;;;;20.75;18.75;;;;;;;12.77;98.62598;96069.49;;;;
2020/09/13 04:32:37;;;;;;;20.75;18.75;;;;;;;12.77;98.62598;96069.49;;;;
2020/09/13 04:33:38;;;;;;;20.75;18.75;;;;;;;12.77;98.62598;96069.49;;;;
2020/09/13 04:34:39;;;;;;;20.75;18.75;;;;;;;12.77;98.62598;96069.49;;;;
2020/09/13 04:35:39;;;;;;;20.75;18.75;;;;;;;12.77;98.62598;96069.49;;;;
2020/09/13 04:36:41;;;;;;;20.75;18.75;;;;;;;12.77;98.62598;96069.49;;;;
2020/09/13 04:37:41;;;;;;;20.75;18.75;;;;;;;12.77;98.62598;96069.49;;;;
2020/09/13 04:38:43;;;;;;;20.75;18.75;;;;;;;12.77;98.62598;96069.49;;;;
2020/09/13 04:39:44;;;;;;;18.55;16.75;;;;;;;12.61;98.80566;96066.88;;;;
2020/09/13 04:40:46;;;;;;;18.55;16.75;;;;;;;12.61;98.80566;96066.88;;;;
2020/09/13 04:41:46;;;;;;;18.55;16.75;;;;;;;12.61;98.80566;96066.88;;;;
2020/09/13 04:42:47;;;;;;;18.55;16.75;;;;;;;12.61;98.80566;96066.88;;;;
2020/09/13 04:43:47;;;;;;;18.55;16.75;;;;;;;12.61;98.80566;96066.88;;;;
2020/09/13 04:45:02;;;;;;;18.55;16.75;;;;;;;12.61;98.80566;96066.88;;;;
2020/09/13 04:46:04;;;;;;;18.55;16.75;;;;;;;12.61;98.80566;96066.88;;;;
2020/09/13 04:47:10;;;;;;;18.55;16.75;;;;;;;12.61;98.80566;96066.88;;;;
2020/09/13 04:48:11;;;;;;;18.55;16.75;;;;;;;12.61;98.80566;96066.88;;;;
2020/09/13 04:49:13;;;;;;;18.55;16.75;;;;;;;12.61;98.80566;96066.88;;;;
2020/09/13 04:50:25;;;;;;;19.8;17.95;;;;;;;12.53;99.02344;96075.76;;;;
2020/09/13 04:51:27;;;;;;;19.8;17.95;;;;;;;12.53;99.02344;96075.76;;;;
2020/09/13 04:52:28;;;;;;;19.8;17.95;;;;;;;12.53;99.02344;96075.76;;;;
2020/09/13 04:53:33;;;;;;;19.8;17.95;;;;;;;12.53;99.02344;96075.76;;;;
2020/09/13 04:54:37;;;;;;;19.8;17.95;;;;;;;12.53;99.02344;96075.76;;;;
2020/09/13 04:55:48;;;;;;;19.8;17.95;;;;;;;12.53;99.02344;96075.76;;;;
2020/09/13 04:56:49;;;;;;;19.8;17.95;;;;;;;12.53;99.02344;96075.76;;;;
2020/09/13 04:57:52;;;;;;;19.8;17.95;;;;;;;12.53;99.02344;96075.76;;;;
2020/09/13 04:58:53;;;;;;;19.8;17.95;;;;;;;12.53;99.02344;96075.76;;;;
2020/09/13 04:59:55;;;;;;;19.8;17.95;;;;;;;12.53;99.02344;96075.76;;;;
2020/09/13 05:00:58;;;;;;;19.55;17.7;;;;;;;12.41;99.20117;96083.39;;;;
2020/09/13 05:01:58;;;;;;;19.55;17.7;;;;;;;12.41;99.20117;96083.39;;;;
2020/09/13 05:03:06;;;;;;;19.55;17.7;;;;;;;12.41;99.20117;96083.39;;;;
2020/09/13 05:04:09;;;;;;;19.55;17.7;;;;;;;12.41;99.20117;96083.39;;;;
2020/09/13 05:05:13;;;;;;;19.55;17.7;;;;;;;12.41;99.20117;96083.39;;;;
2020/09/13 05:06:14;;;;;;;19.55;17.7;;;;;;;12.41;99.20117;96083.39;;;;
2020/09/13 05:07:22;;;;;;;19.55;17.7;;;;;;;12.41;99.20117;96083.39;;;;
2020/09/13 05:08:48;;;;;;;19.55;17.7;;;;;;;12.41;99.20117;96083.39;;;;
2020/09/13 05:10:00;;;;;;;19.55;17.7;;;;;;;12.41;99.20117;96083.39;;;;
2020/09/13 05:11:03;;;;;;;19.55;17.7;;;;;;;12.41;99.20117;96083.39;;;;
2020/09/13 05:12:09;;;;;;;21.5;19.55;;;;;;;12.44;99.40723;96084.41;;;;
2020/09/13 05:13:19;;;;;;;21.5;19.55;;;;;;;12.44;99.40723;96084.41;;;;
2020/09/13 05:14:20;;;;;;;21.5;19.55;;;;;;;12.44;99.40723;96084.41;;;;
2020/09/13 05:15:20;;;;;;;21.5;19.55;;;;;;;12.44;99.40723;96084.41;;;;
2020/09/13 05:16:23;;;;;;;21.5;19.55;;;;;;;12.44;99.40723;96084.41;;;;
2020/09/13 05:17:24;;;;;;;21.5;19.55;;;;;;;12.44;99.40723;96084.41;;;;
2020/09/13 05:18:29;;;;;;;21.5;19.55;;;;;;;12.44;99.40723;96084.41;;;;
2020/09/13 05:19:32;;;;;;;21.5;19.55;;;;;;;12.44;99.40723;96084.41;;;;
2020/09/13 05:20:33;;;;;;;21.5;19.55;;;;;;;12.44;99.40723;96084.41;;;;
2020/09/13 05:21:35;;;;;;;21.5;19.55;;;;;;;12.44;99.40723;96084.41;;;;
2020/09/13 05:22:37;;;;;;;20.4;18.45;;;;;;;12.48;99.52539;96095.94;;;;
2020/09/13 05:23:38;;;;;;;20.4;18.45;;;;;;;12.48;99.52539;96095.94;;;;
2020/09/13 05:24:38;;;;;;;20.4;18.45;;;;;;;12.48;99.52539;96095.94;;;;
2020/09/13 05:25:39;;;;;;;20.4;18.45;;;;;;;12.48;99.52539;96095.94;;;;
2020/09/13 05:26:48;;;;;;;20.4;18.45;;;;;;;12.48;99.52539;96095.94;;;;
2020/09/13 05:27:54;;;;;;;20.4;18.45;;;;;;;12.48;99.52539;96095.94;;;;
2020/09/13 05:29:05;;;;;;;20.4;18.45;;;;;;;12.48;99.52539;96095.94;;;;
2020/09/13 05:30:24;;;;;;;20.4;18.45;;;;;;;12.48;99.52539;96095.94;;;;
2020/09/13 05:31:24;;;;;;;20.4;18.45;;;;;;;12.48;99.52539;96095.94;;;;
2020/09/13 05:32:25;;;;;;;20.4;18.45;;;;;;;12.48;99.52539;96095.94;;;;
2020/09/13 05:33:26;;;;;;;20.45;18.6;;;;;;;12.6;99.72168;96091.91;;;;
2020/09/13 05:34:30;;;;;;;20.45;18.6;;;;;;;12.6;99.72168;96091.91;;;;
2020/09/13 05:35:31;;;;;;;20.45;18.6;;;;;;;12.6;99.72168;96091.91;;;;
2020/09/13 05:36:35;;;;;;;20.45;18.6;;;;;;;12.6;99.72168;96091.91;;;;
2020/09/13 05:37:35;;;;;;;20.45;18.6;;;;;;;12.6;99.72168;96091.91;;;;
2020/09/13 05:38:37;;;;;;;20.45;18.6;;;;;;;12.6;99.72168;96091.91;;;;
2020/09/13 05:39:40;;;;;;;20.45;18.6;;;;;;;12.6;99.72168;96091.91;;;;
2020/09/13 05:40:40;;;;;;;20.45;18.6;;;;;;;12.6;99.72168;96091.91;;;;
2020/09/13 05:41:42;;;;;;;20.45;18.6;;;;;;;12.6;99.72168;96091.91;;;;
2020/09/13 05:42:42;;;;;;;20.45;18.6;;;;;;;12.6;99.72168;96091.91;;;;
2020/09/13 05:43:43;;;;;;;21.7;19.6;;;;;;;12.88;99.60352;96103.39;;;;
2020/09/13 05:44:45;;;;;;;21.7;19.6;;;;;;;12.88;99.60352;96103.39;;;;
2020/09/13 05:45:45;;;;;;;21.7;19.6;;;;;;;12.88;99.60352;96103.39;;;;
2020/09/13 05:46:45;;;;;;;21.7;19.6;;;;;;;12.88;99.60352;96103.39;;;;
2020/09/13 05:47:46;;;;;;;21.7;19.6;;;;;;;12.88;99.60352;96103.39;;;;